Map

Track Data

SID SEASON NUMBER BASIN SUBBASIN NAME ISO_TIME NATURE LAT LON WMO_WIND WMO_PRES WMO_AGENCY TRACK_TYPE DIST2LAND LANDFALL IFLAG USA_AGENCY USA_ATCF_ID USA_LAT USA_LON USA_RECORD USA_STATUS USA_WIND USA_PRES USA_SSHS USA_R34_NE USA_R34_SE USA_R34_SW USA_R34_NW USA_R50_NE USA_R50_SE USA_R50_SW USA_R50_NW USA_R64_NE USA_R64_SE USA_R64_SW USA_R64_NW USA_POCI USA_ROCI USA_RMW USA_EYE TOKYO_LAT TOKYO_LON TOKYO_GRADE TOKYO_WIND TOKYO_PRES TOKYO_R50_DIR TOKYO_R50_LONG TOKYO_R50_SHORT TOKYO_R30_DIR TOKYO_R30_LONG TOKYO_R30_SHORT TOKYO_LAND CMA_LAT CMA_LON CMA_CAT CMA_WIND CMA_PRES HKO_LAT HKO_LON HKO_CAT HKO_WIND HKO_PRES NEWDELHI_LAT NEWDELHI_LON NEWDELHI_GRADE NEWDELHI_WIND NEWDELHI_PRES NEWDELHI_CI NEWDELHI_DP NEWDELHI_POCI REUNION_LAT REUNION_LON REUNION_TYPE REUNION_WIND REUNION_PRES REUNION_TNUM REUNION_CI REUNION_RMW REUNION_R34_NE REUNION_R34_SE REUNION_R34_SW REUNION_R34_NW REUNION_R50_NE REUNION_R50_SE REUNION_R50_SW REUNION_R50_NW REUNION_R64_NE REUNION_R64_SE REUNION_R64_SW REUNION_R64_NW BOM_LAT BOM_LON BOM_TYPE BOM_WIND BOM_PRES BOM_TNUM BOM_CI BOM_RMW BOM_R34_NE BOM_R34_SE BOM_R34_SW BOM_R34_NW BOM_R50_NE BOM_R50_SE BOM_R50_SW BOM_R50_NW BOM_R64_NE BOM_R64_SE BOM_R64_SW BOM_R64_NW BOM_ROCI BOM_POCI BOM_EYE BOM_POS_METHOD BOM_PRES_METHOD NADI_LAT NADI_LON NADI_CAT NADI_WIND NADI_PRES WELLINGTON_LAT WELLINGTON_LON WELLINGTON_WIND WELLINGTON_PRES DS824_LAT DS824_LON DS824_STAGE DS824_WIND DS824_PRES TD9636_LAT TD9636_LON TD9636_STAGE TD9636_WIND TD9636_PRES TD9635_LAT TD9635_LON TD9635_WIND TD9635_PRES TD9635_ROCI NEUMANN_LAT NEUMANN_LON NEUMANN_CLASS NEUMANN_WIND NEUMANN_PRES MLC_LAT MLC_LON MLC_CLASS MLC_WIND MLC_PRES USA_GUST BOM_GUST BOM_GUST_PER REUNION_GUST REUNION_GUST_PER USA_SEAHGT USA_SEARAD_NE USA_SEARAD_SE USA_SEARAD_SW USA_SEARAD_NW STORM_SPEED STORM_DIR
1927167N19087 1927 28 NI BB NOT_NAMED 1927-06-16 00:00:00 TS 18.6000 86.7000 main 158 144 _________O____ -1 18.6000 86.7000 TC 34 2 313
1927167N19087 1927 28 NI BB NOT_NAMED 1927-06-16 03:00:00 TS 18.6600 86.6267 main 144 130 _________PO___ -1 18.6900 86.5900 TC 36 18.6000 86.7000 2 2 319
1927167N19087 1927 28 NI BB NOT_NAMED 1927-06-16 06:00:00 TS 18.7682 86.5420 main 130 119 _________OP___ -1 18.8000 86.5000 TC 39 18.7204 86.6050 2 3 329
1927167N19087 1927 28 NI BB NOT_NAMED 1927-06-16 09:00:00 TS 18.8997 86.4748 main 119 105 _________PP___ -1 18.9425 86.4425 TC 42 18.8426 86.5179 2 3 337
1927167N19087 1927 28 NI BB NOT_NAMED 1927-06-16 12:00:00 TS 19.0343 86.4234 main 105 84 _________OP___ -1 19.1000 86.4000 TC 45 18.9686 86.4469 2 3 341
1927167N19087 1927 28 NI BB NOT_NAMED 1927-06-16 15:00:00 TS 19.1712 86.3750 main 84 70 _________PO___ -1 19.2425 86.3500 TC 45 19.1000 86.4000 3 3 345
1927167N19087 1927 28 NI BB NOT_NAMED 1927-06-16 18:00:00 TS 19.3201 86.3394 main 70 49 _________OP___ -1 19.4000 86.3000 TC 45 19.2401 86.3789 3 3 351
1927167N19087 1927 28 NI BB NOT_NAMED 1927-06-16 21:00:00 TS 19.4836 86.3195 main 49 30 _________PP___ -1 19.5699 86.2798 TC 45 19.3972 86.3592 3 4 347
1927167N19087 1927 28 NI BB NOT_NAMED 1927-06-17 00:00:00 TS 19.6903 86.2550 main 30 0 _________OP___ -1 19.8000 86.2000 TC 45 19.5807 86.3099 3 5 336
1927167N19087 1927 28 NI BB NOT_NAMED 1927-06-17 03:00:00 TS 19.9713 86.0938 main 0 0 _________PO___ -1 20.1425 85.9877 TC 45 19.8000 86.2000 3 7 328
1927167N19087 1927 28 NI BB NOT_NAMED 1927-06-17 06:00:00 TS 20.2798 85.8670 main 0 0 _________OP___ -1 20.5000 85.7000 TC 45 20.0596 86.0340 3 7 323
1927167N19087 1927 28 NI BB NOT_NAMED 1927-06-17 09:00:00 TS 20.5520 85.6181 main 0 0 _________PP___ -1 20.7498 85.4371 TC 45 20.3542 85.7992 3 8 316
1927167N19087 1927 28 NI BB NOT_NAMED 1927-06-17 12:00:00 TS 20.8359 85.2949 main 0 0 _________OP___ -1 21.0000 85.1000 TC 45 20.6718 85.4899 3 9 312
1927167N19087 1927 28 NI BB NOT_NAMED 1927-06-17 15:00:00 TS 21.1712 84.8725 main 0 0 _________PO___ -1 21.3424 84.6450 TC 45 21.0000 85.1000 3 11 308
1927167N19087 1927 28 NI BB NOT_NAMED 1927-06-17 18:00:00 TS 21.5256 84.3550 main 0 0 _________OP___ -1 21.7000 84.1000 TC 45 21.3512 84.6101 3 12 304
1927167N19087 1927 28 NI BB NOT_NAMED 1927-06-17 21:00:00 TS 21.8670 83.7661 main 0 0 _________PP___ -1 22.0302 83.4852 TC 45 21.7038 84.0469 3 13 300
1927167N19087 1927 28 NI BB NOT_NAMED 1927-06-18 00:00:00 TS 22.1647 83.1800 main 0 0 _________OP___ -1 22.3000 82.9000 TC 45 22.0293 83.4601 3 11 298
1927167N19087 1927 28 NI BB NOT_NAMED 1927-06-18 03:00:00 TS 22.3898 82.6886 main 0 0 _________PO___ -1 22.4796 82.4771 TC 41 22.3000 82.9000 3 9 294
1927167N19087 1927 28 NI BB NOT_NAMED 1927-06-18 06:00:00 TS 22.5347 82.2687 main 0 0 _________OP___ -1 22.6000 82.1000 TC 37 22.4694 82.4374 3 8 288
1927167N19087 1927 28 NI BB NOT_NAMED 1927-06-18 09:00:00 TS 22.6394 81.8338 main 0 0 _________PP___ -1 22.6924 81.6572 TC 33 22.5864 82.0104 3 8 285
1927167N19087 1927 28 NI BB NOT_NAMED 1927-06-18 12:00:00 TS 22.7426 81.4016 main 0 0 _________OP___ -1 22.8000 81.2000 TC 30 22.6852 81.6032 3 8 288
1927167N19087 1927 28 NI BB NOT_NAMED 1927-06-18 15:00:00 TS 22.8925 80.9713 main 0 0 _________PO___ -1 22.9849 80.7426 TC 30 22.8000 81.2000 1 9 292
1927167N19087 1927 28 NI BB NOT_NAMED 1927-06-18 18:00:00 TS 23.0649 80.5250 main 0 0 _________OP___ -1 23.2000 80.3000 TC 30 22.9298 80.7500 1 9 292
1927167N19087 1927 28 NI BB NOT_NAMED 1927-06-18 21:00:00 TS 23.2251 80.0943 main 0 0 _________PP___ -1 23.3624 79.8846 TC 30 23.0877 80.3040 1 9 297
1927167N19087 1927 28 NI BB NOT_NAMED 1927-06-19 00:00:00 TS 23.4509 79.6905 main 0 0 _________OP___ -1 23.6000 79.5000 TC 30 23.3017 79.8811 1 9 309
1927167N19087 1927 28 NI BB NOT_NAMED 1927-06-19 03:00:00 TS 23.7988 79.3101 main 0 0 _________PO___ -1 23.9975 79.1202 TC 30 23.6000 79.5000 1 10 320
1927167N19087 1927 28 NI BB NOT_NAMED 1927-06-19 06:00:00 TS 24.2548 78.9652 main 0 0 _________OP___ -1 24.5000 78.8000 TC 30 24.0095 79.1305 1 11 329
1927167N19087 1927 28 NI BB NOT_NAMED 1927-06-19 09:00:00 TS 24.7687 78.6823 main 0 0 _________PP___ -1 25.0349 78.5550 TC 30 24.5024 78.8097 1 12 338
1927167N19087 1927 28 NI BB NOT_NAMED 1927-06-19 12:00:00 TS 25.3220 78.4794 main 0 0 _________OP___ -1 25.6000 78.4000 TC 30 25.0440 78.5588 1 12 345
1927167N19087 1927 28 NI BB NOT_NAMED 1927-06-19 15:00:00 TS 25.8787 78.3488 main 0 0 _________PO___ -1 26.1574 78.2976 TC 30 25.6000 78.4000 1 11 353
1927167N19087 1927 28 NI BB NOT_NAMED 1927-06-19 18:00:00 TS 26.3814 78.3272 main 0 0 _________OP___ -1 26.7000 78.3000 TC 30 26.1425 78.3476 1 10 2
1927167N19087 1927 28 NI BB NOT_NAMED 1927-06-19 21:00:00 TS 26.8860 78.3962 main 0 0 _________PP___ -1 27.2101 78.4171 TC 30 26.6700 78.3823 1 10 10
1927167N19087 1927 28 NI BB NOT_NAMED 1927-06-20 00:00:00 TS 27.3584 78.5173 main 0 0 _________OP___ -1 27.7000 78.6000 TC 30 27.1875 78.4760 1 8 12
1927167N19087 1927 28 NI BB NOT_NAMED 1927-06-20 03:00:00 NR 27.7000 78.6000 main 0 __________O___ -1 TC 27.7000 78.6000 1 7 12

About IBTrACS Database

This database is a web-friendly format of International Best Track Archive for Climate Stewardship (IBTrACS), a global best track data archive curated by NOAA dating back to 1842.

Updated: 2021-10-19